Time,TemperatureF,DewpointF,PressureIn,WindDirection,WindDirectionDegrees,WindSpeedMPH,WindSpeedGustMPH,Humidity,HourlyPrecipIn,Conditions,Clouds,dailyrainin,SoftwareType,DateUTC
2013-09-22 00:00:00,70.5,69.3,29.86,SW,225,0.0,0.0,96,0.00,,,0.00,LWC V2.00 B2112,2013-09-22 04:00:00,
2013-09-22 00:01:00,70.5,69.3,29.86,SW,225,0.0,0.0,96,0.00,,,0.00,LWC V2.00 B2112,2013-09-22 04:01:00,
2013-09-22 00:02:00,70.5,69.3,29.87,SW,225,0.0,0.0,96,0.00,,,0.00,LWC V2.00 B2112,2013-09-22 04:02:00,
2013-09-22 00:03:00,70.5,69.3,29.87,SW,225,0.0,0.0,96,0.00,,,0.00,LWC V2.00 B2112,2013-09-22 04:03:00,
2013-09-22 00:08:00,70.5,69.3,29.87,SW,225,0.0,0.0,96,0.00,,,0.00,LWC V2.00 B2112,2013-09-22 04:08:00,
2013-09-22 00:13:00,70.5,69.3,29.87,SW,225,0.0,0.0,96,0.00,,,0.00,LWC V2.00 B2112,2013-09-22 04:13:00,
2013-09-22 00:18:00,70.5,69.3,29.86,SW,225,0.0,0.0,96,0.00,,,0.00,LWC V2.00 B2112,2013-09-22 04:18:00,
2013-09-22 00:23:00,70.5,69.3,29.86,SW,225,0.0,0.0,96,0.00,,,0.00,LWC V2.00 B2112,2013-09-22 04:23:00,
2013-09-22 00:28:00,70.5,69.3,29.86,SW,225,0.0,0.0,96,0.00,,,0.00,LWC V2.00 B2112,2013-09-22 04:28:00,
2013-09-22 00:33:00,70.5,69.3,29.86,SW,225,0.0,0.0,96,0.00,,,0.00,LWC V2.00 B2112,2013-09-22 04:33:00,
2013-09-22 00:38:00,70.5,69.3,29.86,SW,225,0.0,0.0,96,0.00,,,0.00,LWC V2.00 B2112,2013-09-22 04:38:00,
2013-09-22 00:43:00,70.5,69.3,29.86,SW,225,0.0,0.0,96,0.00,,,0.00,LWC V2.00 B2112,2013-09-22 04:43:00,
2013-09-22 00:48:00,70.5,69.3,29.86,SW,225,0.0,0.0,96,0.00,,,0.00,LWC V2.00 B2112,2013-09-22 04:48:00,
2013-09-22 00:53:00,70.5,69.3,29.86,SW,225,0.0,0.0,96,0.00,,,0.00,LWC V2.00 B2112,2013-09-22 04:53:00,
2013-09-22 00:58:00,70.5,69.3,29.86,SW,225,0.0,0.0,96,0.00,,,0.00,LWC V2.00 B2112,2013-09-22 04:58:00,
2013-09-22 01:03:00,70.5,69.6,29.87,WSW,247,0.0,0.0,97,0.00,,,0.00,LWC V2.00 B2112,2013-09-22 05:03:00,
2013-09-22 01:08:00,70.5,69.6,29.86,SE,135,0.0,0.0,97,0.00,,,0.00,LWC V2.00 B2112,2013-09-22 05:08:00,
2013-09-22 01:13:00,70.2,68.9,29.87,SE,135,0.0,0.0,96,0.00,,,0.00,LWC V2.00 B2112,2013-09-22 05:13:00,
2013-09-22 01:18:00,69.8,68.6,29.87,SE,135,0.0,0.0,96,0.00,,,0.00,LWC V2.00 B2112,2013-09-22 05:18:00,
2013-09-22 01:23:00,69.6,68.4,29.87,SE,135,0.0,0.0,96,0.00,,,0.00,LWC V2.00 B2112,2013-09-22 05:23:00,
2013-09-22 01:28:00,69.4,68.2,29.87,NE,45,0.0,0.0,96,0.00,,,0.00,LWC V2.00 B2112,2013-09-22 05:28:00,
2013-09-22 01:33:00,69.1,67.9,29.86,NW,315,0.0,0.0,96,0.00,,,0.00,LWC V2.00 B2112,2013-09-22 05:33:00,
2013-09-22 01:38:00,68.7,67.5,29.87,NW,315,0.0,0.0,96,0.00,,,0.00,LWC V2.00 B2112,2013-09-22 05:38:00,
2013-09-22 01:43:00,68.4,67.1,29.87,ENE,67,0.0,0.0,96,0.00,,,0.00,LWC V2.00 B2112,2013-09-22 05:43:00,
2013-09-22 01:48:00,68.2,67.0,29.87,North,0,0.0,0.0,96,0.00,,,0.00,LWC V2.00 B2112,2013-09-22 05:48:00,
2013-09-22 01:53:00,67.8,66.6,29.87,North,0,0.0,0.0,96,0.00,,,0.00,LWC V2.00 B2112,2013-09-22 05:53:00,
2013-09-22 01:58:00,67.6,66.4,29.87,ENE,67,0.0,0.0,96,0.00,,,0.00,LWC V2.00 B2112,2013-09-22 05:58:00,
2013-09-22 02:03:00,67.3,66.1,29.87,NE,45,0.0,0.0,96,0.00,,,0.00,LWC V2.00 B2112,2013-09-22 06:03:00,
2013-09-22 02:08:00,67.3,66.1,29.87,NE,45,0.0,0.0,96,0.00,,,0.00,LWC V2.00 B2112,2013-09-22 06:08:00,
2013-09-22 02:13:00,67.1,65.9,29.87,NE,45,0.0,0.0,96,0.00,,,0.00,LWC V2.00 B2112,2013-09-22 06:13:00,
2013-09-22 02:18:00,66.9,65.7,29.87,NE,45,0.0,0.0,96,0.00,,,0.00,LWC V2.00 B2112,2013-09-22 06:18:00,
2013-09-22 02:23:00,66.7,65.7,29.87,NE,45,0.0,0.0,96,0.00,,,0.00,LWC V2.00 B2112,2013-09-22 06:23:00,
2013-09-22 02:28:00,66.7,65.5,29.87,NE,45,0.0,0.0,96,0.00,,,0.00,LWC V2.00 B2112,2013-09-22 06:28:00,
2013-09-22 02:33:00,66.7,65.5,29.87,NE,45,0.0,0.0,96,0.00,,,0.00,LWC V2.00 B2112,2013-09-22 06:33:00,
2013-09-22 02:38:00,66.6,65.3,29.87,NE,45,0.0,0.0,96,0.00,,,0.00,LWC V2.00 B2112,2013-09-22 06:38:00,
2013-09-22 02:43:00,66.4,65.2,29.86,NE,45,0.0,0.0,96,0.00,,,0.00,LWC V2.00 B2112,2013-09-22 06:43:00,
2013-09-22 02:48:00,66.4,65.2,29.87,NE,45,0.0,0.0,96,0.00,,,0.00,LWC V2.00 B2112,2013-09-22 06:48:00,
2013-09-22 02:53:00,66.4,65.2,29.86,NE,45,0.0,0.0,96,0.00,,,0.00,LWC V2.00 B2112,2013-09-22 06:53:00,
2013-09-22 02:58:00,66.2,65.0,29.86,NE,45,0.0,0.0,96,0.00,,,0.00,LWC V2.00 B2112,2013-09-22 06:58:00,
2013-09-22 03:03:00,66.2,65.0,29.85,NNE,22,0.0,0.0,96,0.00,,,0.00,LWC V2.00 B2112,2013-09-22 07:03:00,
2013-09-22 03:08:00,66.0,64.8,29.86,NNE,22,0.0,0.0,96,0.00,,,0.00,LWC V2.00 B2112,2013-09-22 07:08:00,
2013-09-22 03:13:00,66.0,64.8,29.86,NNE,22,0.0,0.0,96,0.00,,,0.00,LWC V2.00 B2112,2013-09-22 07:13:00,
2013-09-22 03:18:00,66.0,64.8,29.85,NNE,22,0.0,0.0,96,0.00,,,0.00,LWC V2.00 B2112,2013-09-22 07:18:00,
2013-09-22 03:23:00,66.0,64.8,29.85,NNE,22,0.0,0.0,96,0.00,,,0.00,LWC V2.00 B2112,2013-09-22 07:23:00,
2013-09-22 03:28:00,66.0,64.8,29.85,NNE,22,0.0,0.0,96,0.00,,,0.00,LWC V2.00 B2112,2013-09-22 07:28:00,
2013-09-22 03:33:00,65.8,64.6,29.85,NNE,22,0.0,0.0,96,0.00,,,0.00,LWC V2.00 B2112,2013-09-22 07:33:00,
2013-09-22 03:38:00,65.8,64.6,29.85,NNE,22,0.0,0.0,96,0.00,,,0.00,LWC V2.00 B2112,2013-09-22 07:38:00,
2013-09-22 03:43:00,65.8,64.6,29.85,NNE,22,0.0,0.0,96,0.00,,,0.00,LWC V2.00 B2112,2013-09-22 07:43:00,
2013-09-22 03:48:00,65.8,64.6,29.85,NNE,22,0.0,0.0,96,0.00,,,0.00,LWC V2.00 B2112,2013-09-22 07:48:00,
2013-09-22 03:53:00,65.8,64.6,29.85,NNE,22,0.0,0.0,96,0.00,,,0.00,LWC V2.00 B2112,2013-09-22 07:53:00,
2013-09-22 03:58:00,65.8,64.6,29.84,NNE,22,0.0,0.0,96,0.00,,,0.00,LWC V2.00 B2112,2013-09-22 07:58:00,
2013-09-22 04:03:00,65.7,64.5,29.85,NNE,22,0.0,0.0,96,0.00,,,0.00,LWC V2.00 B2112,2013-09-22 08:03:00,
2013-09-22 04:08:00,65.7,64.5,29.84,NNE,22,0.0,0.0,96,0.00,,,0.00,LWC V2.00 B2112,2013-09-22 08:08:00,
2013-09-22 04:14:00,65.5,64.3,29.85,NNE,22,0.0,0.0,96,0.00,,,0.00,LWC V2.00 B2112,2013-09-22 08:14:00,
2013-09-22 04:19:00,65.5,64.3,29.85,NNE,22,0.0,0.0,96,0.00,,,0.00,LWC V2.00 B2112,2013-09-22 08:19:00,
2013-09-22 04:24:00,65.5,64.3,29.85,North,0,0.0,0.0,96,0.00,,,0.00,LWC V2.00 B2112,2013-09-22 08:24:00,
2013-09-22 04:29:00,65.3,64.1,29.85,North,0,0.0,0.0,96,0.00,,,0.00,LWC V2.00 B2112,2013-09-22 08:29:00,
2013-09-22 04:34:00,65.1,63.9,29.84,NNE,22,0.0,0.0,96,0.00,,,0.00,LWC V2.00 B2112,2013-09-22 08:34:00,
2013-09-22 04:39:00,64.9,63.8,29.84,NNE,22,0.0,0.0,96,0.00,,,0.00,LWC V2.00 B2112,2013-09-22 08:39:00,
2013-09-22 04:44:00,64.8,63.6,29.84,NNE,22,0.0,0.0,96,0.00,,,0.00,LWC V2.00 B2112,2013-09-22 08:44:00,
2013-09-22 04:49:00,64.6,63.4,29.84,NNE,22,0.0,0.0,96,0.00,,,0.00,LWC V2.00 B2112,2013-09-22 08:49:00,
2013-09-22 04:54:00,64.4,63.2,29.85,NNE,22,0.0,0.0,96,0.00,,,0.00,LWC V2.00 B2112,2013-09-22 08:54:00,
2013-09-22 04:59:00,64.2,63.1,29.85,NNE,22,0.0,0.0,96,0.00,,,0.00,LWC V2.00 B2112,2013-09-22 08:59:00,
2013-09-22 05:04:00,64.2,63.1,29.84,NNE,22,0.0,0.0,96,0.00,,,0.00,LWC V2.00 B2112,2013-09-22 09:04:00,
2013-09-22 05:09:00,64.2,63.1,29.84,NNE,22,0.0,0.0,96,0.00,,,0.00,LWC V2.00 B2112,2013-09-22 09:09:00,
2013-09-22 05:14:00,64.2,63.1,29.84,NNE,22,0.0,0.0,96,0.00,,,0.00,LWC V2.00 B2112,2013-09-22 09:14:00,
2013-09-22 05:19:00,64.0,62.9,29.84,NNE,22,0.0,0.0,96,0.00,,,0.00,LWC V2.00 B2112,2013-09-22 09:19:00,
2013-09-22 05:24:00,64.0,63.2,29.84,NNE,22,0.0,0.0,97,0.00,,,0.00,LWC V2.00 B2112,2013-09-22 09:24:00,
2013-09-22 05:29:00,64.0,62.9,29.84,NNE,22,0.0,0.0,96,0.00,,,0.00,LWC V2.00 B2112,2013-09-22 09:29:00,
2013-09-22 05:34:00,64.0,63.2,29.83,NNE,22,0.0,0.0,97,0.00,,,0.00,LWC V2.00 B2112,2013-09-22 09:34:00,
2013-09-22 05:39:00,64.0,63.2,29.84,NNE,22,0.0,0.0,97,0.00,,,0.00,LWC V2.00 B2112,2013-09-22 09:39:00,
2013-09-22 05:44:00,64.0,63.2,29.83,NE,45,0.0,0.0,97,0.00,,,0.00,LWC V2.00 B2112,2013-09-22 09:44:00,
2013-09-22 05:49:00,64.0,63.2,29.83,NNE,22,0.0,0.0,97,0.00,,,0.00,LWC V2.00 B2112,2013-09-22 09:49:00,
2013-09-22 05:54:00,64.0,63.2,29.83,NNE,22,0.0,0.0,97,0.00,,,0.00,LWC V2.00 B2112,2013-09-22 09:54:00,
2013-09-22 05:59:00,64.0,63.2,29.83,NNE,22,0.0,0.0,97,0.00,,,0.00,LWC V2.00 B2112,2013-09-22 09:59:00,
2013-09-22 06:04:00,64.0,63.2,29.83,NNE,22,0.0,0.0,97,0.00,,,0.00,LWC V2.00 B2112,2013-09-22 10:04:00,
2013-09-22 06:09:00,64.0,63.2,29.83,NNE,22,0.0,0.0,97,0.00,,,0.00,LWC V2.00 B2112,2013-09-22 10:09:00,
2013-09-22 06:14:00,64.0,63.2,29.84,North,0,0.0,0.0,97,0.00,,,0.00,LWC V2.00 B2112,2013-09-22 10:14:00,
2013-09-22 06:19:00,64.0,63.2,29.83,NNE,22,0.0,0.0,97,0.00,,,0.00,LWC V2.00 B2112,2013-09-22 10:19:00,
2013-09-22 06:24:00,64.0,63.2,29.83,NNE,22,0.0,0.0,97,0.00,,,0.00,LWC V2.00 B2112,2013-09-22 10:24:00,
2013-09-22 06:29:00,64.0,63.2,29.84,North,0,0.0,0.0,97,0.00,,,0.00,LWC V2.00 B2112,2013-09-22 10:29:00,
2013-09-22 06:34:00,64.0,63.2,29.84,North,0,0.0,0.0,97,0.00,,,0.00,LWC V2.00 B2112,2013-09-22 10:34:00,
2013-09-22 06:40:00,64.0,63.2,29.84,NNE,22,0.0,0.0,97,0.00,,,0.00,LWC V2.00 B2112,2013-09-22 10:40:00,
2013-09-22 06:45:00,64.2,63.4,29.85,NE,45,0.0,0.0,97,0.00,,,0.00,LWC V2.00 B2112,2013-09-22 10:45:00,
2013-09-22 06:50:00,64.2,63.4,29.85,NNE,22,0.0,0.0,97,0.00,,,0.00,LWC V2.00 B2112,2013-09-22 10:50:00,
2013-09-22 07:06:00,64.2,63.4,29.86,NNE,22,0.0,0.0,97,0.00,,,0.00,LWC V2.00 B2112,2013-09-22 11:06:00,
2013-09-22 07:11:00,64.2,63.4,29.87,NNE,22,0.0,0.0,97,0.00,,,0.00,LWC V2.00 B2112,2013-09-22 11:11:00,
2013-09-22 07:16:00,64.4,63.5,29.87,NNE,22,0.0,0.0,97,0.00,,,0.00,LWC V2.00 B2112,2013-09-22 11:16:00,
2013-09-22 07:21:00,64.6,63.7,29.86,NNE,22,0.0,0.0,97,0.00,,,0.00,LWC V2.00 B2112,2013-09-22 11:21:00,
2013-09-22 07:26:00,64.6,63.7,29.87,NNE,22,0.0,0.0,97,0.00,,,0.00,LWC V2.00 B2112,2013-09-22 11:26:00,
2013-09-22 07:31:00,64.6,63.7,29.87,NNE,22,0.0,0.0,97,0.00,,,0.00,LWC V2.00 B2112,2013-09-22 11:31:00,
2013-09-22 07:36:00,64.6,63.7,29.87,North,0,0.0,0.0,97,0.00,,,0.00,LWC V2.00 B2112,2013-09-22 11:36:00,
2013-09-22 07:41:00,64.6,63.7,29.87,NNE,22,0.0,0.0,97,0.00,,,0.00,LWC V2.00 B2112,2013-09-22 11:41:00,
2013-09-22 07:46:00,64.6,63.7,29.86,NNE,22,0.0,0.0,97,0.00,,,0.00,LWC V2.00 B2112,2013-09-22 11:46:00,
2013-09-22 07:51:00,64.8,63.9,29.87,North,0,0.0,0.0,97,0.00,,,0.00,LWC V2.00 B2112,2013-09-22 11:51:00,
2013-09-22 07:56:00,64.9,64.1,29.87,NNE,22,0.0,0.0,97,0.00,,,0.00,LWC V2.00 B2112,2013-09-22 11:56:00,
2013-09-22 08:01:00,64.9,64.1,29.87,North,0,0.0,0.0,97,0.00,,,0.00,LWC V2.00 B2112,2013-09-22 12:01:00,
2013-09-22 08:06:00,64.9,64.1,29.88,NNE,22,0.0,0.0,97,0.00,,,0.00,LWC V2.00 B2112,2013-09-22 12:06:00,
2013-09-22 08:11:00,64.9,64.1,29.87,NE,45,0.0,0.0,97,0.00,,,0.00,LWC V2.00 B2112,2013-09-22 12:11:00,
2013-09-22 08:16:00,64.8,63.9,29.87,NNE,22,0.0,0.0,97,0.00,,,0.00,LWC V2.00 B2112,2013-09-22 12:16:00,
2013-09-22 08:21:00,64.9,63.9,29.87,NNE,22,0.0,0.0,97,0.00,,,0.00,LWC V2.00 B2112,2013-09-22 12:21:00,
2013-09-22 08:26:00,64.8,63.9,29.87,NNE,22,0.0,0.0,97,0.00,,,0.00,LWC V2.00 B2112,2013-09-22 12:26:00,
2013-09-22 08:31:00,64.9,64.1,29.87,NNE,22,0.0,0.0,97,0.00,,,0.00,LWC V2.00 B2112,2013-09-22 12:31:00,
2013-09-22 08:36:00,64.9,64.1,29.88,NNE,22,0.0,0.0,97,0.00,,,0.00,LWC V2.00 B2112,2013-09-22 12:36:00,
2013-09-22 08:41:00,64.9,64.1,29.88,NNE,22,0.0,0.0,97,0.00,,,0.00,LWC V2.00 B2112,2013-09-22 12:41:00,
2013-09-22 08:46:00,64.9,64.1,29.89,NNE,22,0.0,0.0,97,0.00,,,0.00,LWC V2.00 B2112,2013-09-22 12:46:00,
2013-09-22 08:51:00,65.1,64.2,29.89,NNE,22,0.0,0.0,97,0.00,,,0.00,LWC V2.00 B2112,2013-09-22 12:51:00,
2013-09-22 08:56:00,65.1,63.9,29.89,NE,45,0.0,0.0,96,0.00,,,0.00,LWC V2.00 B2112,2013-09-22 12:56:00,
2013-09-22 09:01:00,65.1,63.9,29.89,NNE,22,0.0,0.0,96,0.00,,,0.00,LWC V2.00 B2112,2013-09-22 13:01:00,
2013-09-22 09:06:00,65.1,63.9,29.89,NE,45,0.0,0.0,96,0.00,,,0.00,LWC V2.00 B2112,2013-09-22 13:06:00,
2013-09-22 09:11:00,65.3,64.1,29.89,NNE,22,0.0,0.0,96,0.00,,,0.00,LWC V2.00 B2112,2013-09-22 13:11:00,
2013-09-22 09:16:00,65.3,64.1,29.89,NNE,22,0.0,0.0,96,0.00,,,0.00,LWC V2.00 B2112,2013-09-22 13:16:00,
2013-09-22 09:21:00,65.3,63.8,29.89,NNE,22,0.0,0.0,95,0.00,,,0.00,LWC V2.00 B2112,2013-09-22 13:21:00,
2013-09-22 09:26:00,65.5,64.0,29.89,NNE,22,0.0,0.0,95,0.00,,,0.00,LWC V2.00 B2112,2013-09-22 13:26:00,
2013-09-22 09:31:00,65.5,64.0,29.90,NE,45,0.0,0.0,95,0.00,,,0.00,LWC V2.00 B2112,2013-09-22 13:31:00,
2013-09-22 09:36:00,65.5,64.1,29.90,North,0,0.0,0.0,95,0.00,,,0.00,LWC V2.00 B2112,2013-09-22 13:36:00,
2013-09-22 09:41:00,65.8,64.3,29.90,NE,45,0.0,0.0,95,0.00,,,0.00,LWC V2.00 B2112,2013-09-22 13:41:00,
2013-09-22 09:46:00,65.8,64.0,29.90,NNE,22,0.0,0.0,94,0.00,,,0.00,LWC V2.00 B2112,2013-09-22 13:46:00,
2013-09-22 09:51:00,65.8,64.0,29.90,North,0,0.0,0.0,94,0.00,,,0.00,LWC V2.00 B2112,2013-09-22 13:51:00,
2013-09-22 09:56:00,66.0,64.2,29.90,NNE,22,0.0,0.0,94,0.00,,,0.00,LWC V2.00 B2112,2013-09-22 13:56:00,
2013-09-22 10:01:00,66.0,63.9,29.90,North,0,0.0,0.0,93,0.00,,,0.00,LWC V2.00 B2112,2013-09-22 14:01:00,
2013-09-22 10:06:00,66.2,64.1,29.91,NNE,22,0.0,0.0,93,0.00,,,0.00,LWC V2.00 B2112,2013-09-22 14:06:00,
2013-09-22 10:11:00,66.4,64.2,29.91,NNE,22,0.0,0.0,93,0.00,,,0.00,LWC V2.00 B2112,2013-09-22 14:11:00,
2013-09-22 10:16:00,66.6,64.4,29.91,North,0,0.0,0.0,93,0.00,,,0.00,LWC V2.00 B2112,2013-09-22 14:16:00,
2013-09-22 10:21:00,66.7,64.3,29.91,NNE,22,0.0,0.0,92,0.00,,,0.00,LWC V2.00 B2112,2013-09-22 14:21:00,
2013-09-22 10:26:00,66.9,64.2,29.91,NNE,22,0.0,0.0,91,0.00,,,0.00,LWC V2.00 B2112,2013-09-22 14:26:00,
2013-09-22 10:31:00,67.1,64.3,29.91,NE,45,0.0,0.0,91,0.00,,,0.00,LWC V2.00 B2112,2013-09-22 14:31:00,
2013-09-22 10:36:00,67.3,64.2,29.91,NNE,22,0.0,0.0,90,0.00,,,0.00,LWC V2.00 B2112,2013-09-22 14:36:00,
2013-09-22 10:41:00,67.6,64.3,29.92,NNE,22,0.0,0.0,89,0.00,,,0.00,LWC V2.00 B2112,2013-09-22 14:41:00,
2013-09-22 10:46:00,67.6,63.9,29.92,NNE,22,0.0,0.0,88,0.00,,,0.00,LWC V2.00 B2112,2013-09-22 14:46:00,
2013-09-22 10:51:00,67.6,63.9,29.92,NNE,22,0.0,0.0,88,0.00,,,0.00,LWC V2.00 B2112,2013-09-22 14:51:00,
2013-09-22 10:56:00,67.8,63.8,29.92,NNE,22,0.0,0.0,87,0.00,,,0.00,LWC V2.00 B2112,2013-09-22 14:56:00,
2013-09-22 11:01:00,68.2,64.1,29.91,NNE,22,0.0,0.0,87,0.00,,,0.00,LWC V2.00 B2112,2013-09-22 15:01:00,
2013-09-22 11:06:00,68.5,64.0,29.92,NNE,22,0.0,0.0,86,0.00,,,0.00,LWC V2.00 B2112,2013-09-22 15:06:00,
2013-09-22 11:11:00,68.7,64.3,29.92,NNE,22,0.0,0.0,86,0.00,,,0.00,LWC V2.00 B2112,2013-09-22 15:11:00,
2013-09-22 11:16:00,68.9,64.2,29.92,NNE,22,0.0,0.0,85,0.00,,,0.00,LWC V2.00 B2112,2013-09-22 15:16:00,
2013-09-22 11:21:00,68.9,63.8,29.91,NNE,22,0.0,0.0,84,0.00,,,0.00,LWC V2.00 B2112,2013-09-22 15:21:00,
2013-09-22 11:26:00,68.7,63.7,29.92,NNE,22,0.0,0.0,84,0.00,,,0.00,LWC V2.00 B2112,2013-09-22 15:26:00,
2013-09-22 11:31:00,68.7,63.7,29.92,NNE,22,0.0,0.0,84,0.00,,,0.00,LWC V2.00 B2112,2013-09-22 15:31:00,
2013-09-22 11:36:00,68.7,63.7,29.91,NE,45,0.0,0.0,84,0.00,,,0.00,LWC V2.00 B2112,2013-09-22 15:36:00,
2013-09-22 11:41:00,69.1,64.0,29.91,NE,45,0.0,0.0,84,0.00,,,0.00,LWC V2.00 B2112,2013-09-22 15:41:00,
2013-09-22 11:46:00,69.4,64.0,29.92,NNE,22,0.0,0.0,83,0.00,,,0.00,LWC V2.00 B2112,2013-09-22 15:46:00,
2013-09-22 11:51:00,69.4,64.0,29.91,NNE,22,0.0,0.0,83,0.00,,,0.00,LWC V2.00 B2112,2013-09-22 15:51:00,
2013-09-22 11:56:00,69.4,64.0,29.91,NNE,22,0.0,0.0,83,0.00,,,0.00,LWC V2.00 B2112,2013-09-22 15:56:00,
2013-09-22 12:01:00,69.3,63.8,29.91,North,0,0.0,0.0,83,0.00,,,0.00,LWC V2.00 B2112,2013-09-22 16:01:00,
2013-09-22 12:06:00,69.1,63.7,29.92,NNE,22,0.0,0.0,83,0.00,,,0.00,LWC V2.00 B2112,2013-09-22 16:06:00,
2013-09-22 12:11:00,69.1,63.7,29.92,North,0,0.0,0.0,83,0.00,,,0.00,LWC V2.00 B2112,2013-09-22 16:11:00,
2013-09-22 12:16:00,69.4,64.0,29.92,NNE,22,0.0,0.0,83,0.00,,,0.00,LWC V2.00 B2112,2013-09-22 16:16:00,
2013-09-22 12:21:00,70.0,64.5,29.91,NE,45,0.0,0.0,82,0.00,,,0.00,LWC V2.00 B2112,2013-09-22 16:21:00,
2013-09-22 12:26:00,70.9,65.1,29.91,NNE,22,0.0,0.0,82,0.00,,,0.00,LWC V2.00 B2112,2013-09-22 16:26:00,
2013-09-22 12:31:00,71.2,64.8,29.92,NE,45,0.0,0.0,80,0.00,,,0.00,LWC V2.00 B2112,2013-09-22 16:31:00,
2013-09-22 12:36:00,71.4,64.6,29.92,NNE,22,0.0,0.0,80,0.00,,,0.00,LWC V2.00 B2112,2013-09-22 16:36:00,
2013-09-22 12:41:00,71.2,64.4,29.92,NNE,22,0.0,0.0,79,0.00,,,0.00,LWC V2.00 B2112,2013-09-22 16:41:00,
2013-09-22 12:46:00,71.2,64.8,29.92,NNE,22,0.0,0.0,80,0.00,,,0.00,LWC V2.00 B2112,2013-09-22 16:46:00,
2013-09-22 12:52:00,71.8,65.3,29.91,NE,45,0.0,0.0,79,0.00,,,0.00,LWC V2.00 B2112,2013-09-22 16:52:00,
2013-09-22 12:57:00,72.9,65.6,29.91,NNE,22,0.0,0.0,78,0.00,,,0.00,LWC V2.00 B2112,2013-09-22 16:57:00,
2013-09-22 13:02:00,73.2,65.6,29.91,NNE,22,0.0,0.0,77,0.00,,,0.00,LWC V2.00 B2112,2013-09-22 17:02:00,
2013-09-22 13:07:00,73.0,64.7,29.92,NNE,22,0.0,0.0,75,0.00,,,0.00,LWC V2.00 B2112,2013-09-22 17:07:00,
2013-09-22 13:12:00,72.7,64.3,29.91,NNE,22,0.0,0.0,75,0.00,,,0.00,LWC V2.00 B2112,2013-09-22 17:12:00,
2013-09-22 13:17:00,72.7,64.7,29.91,NNE,22,0.0,0.0,76,0.00,,,0.00,LWC V2.00 B2112,2013-09-22 17:17:00,
2013-09-22 13:22:00,72.5,64.1,29.91,NNE,22,0.0,0.0,75,0.00,,,0.00,LWC V2.00 B2112,2013-09-22 17:22:00,
2013-09-22 13:27:00,72.5,64.1,29.91,NNE,22,0.0,0.0,75,0.00,,,0.00,LWC V2.00 B2112,2013-09-22 17:27:00,
2013-09-22 13:32:00,72.3,64.0,29.91,North,0,0.0,0.0,75,0.00,,,0.00,LWC V2.00 B2112,2013-09-22 17:32:00,
2013-09-22 13:37:00,72.7,64.3,29.90,NE,45,0.0,0.0,75,0.00,,,0.00,LWC V2.00 B2112,2013-09-22 17:37:00,
2013-09-22 13:42:00,73.4,64.7,29.90,NE,45,0.0,0.0,74,0.00,,,0.00,LWC V2.00 B2112,2013-09-22 17:42:00,
2013-09-22 13:47:00,74.1,64.9,29.90,NNE,22,0.0,0.0,73,0.00,,,0.00,LWC V2.00 B2112,2013-09-22 17:47:00,
2013-09-22 13:53:00,74.1,64.9,29.90,NNE,22,0.0,0.0,73,0.00,,,0.00,LWC V2.00 B2112,2013-09-22 17:53:00,
2013-09-22 13:57:00,74.3,64.7,29.90,NNE,22,0.0,0.0,72,0.00,,,0.00,LWC V2.00 B2112,2013-09-22 17:57:00,
2013-09-22 14:02:00,74.5,64.9,29.90,North,0,0.0,0.0,72,0.00,,,0.00,LWC V2.00 B2112,2013-09-22 18:02:00,
2013-09-22 14:07:00,74.5,64.5,29.90,NNE,22,0.0,0.0,71,0.00,,,0.00,LWC V2.00 B2112,2013-09-22 18:07:00,
2013-09-22 14:13:00,74.8,64.8,29.90,NNE,22,0.0,0.0,71,0.00,,,0.00,LWC V2.00 B2112,2013-09-22 18:13:00,
2013-09-22 14:18:00,75.0,65.0,29.90,NNE,22,0.0,0.0,71,0.00,,,0.00,LWC V2.00 B2112,2013-09-22 18:18:00,
2013-09-22 14:23:00,75.4,64.9,29.90,NNE,22,0.0,0.0,70,0.00,,,0.00,LWC V2.00 B2112,2013-09-22 18:23:00,
2013-09-22 14:28:00,75.4,64.9,29.90,NNE,22,0.0,0.0,70,0.00,,,0.00,LWC V2.00 B2112,2013-09-22 18:28:00,
2013-09-22 14:33:00,75.7,65.3,29.90,NE,45,0.0,0.0,70,0.00,,,0.00,LWC V2.00 B2112,2013-09-22 18:33:00,
2013-09-22 14:38:00,75.6,64.7,29.89,North,0,0.0,0.0,69,0.00,,,0.00,LWC V2.00 B2112,2013-09-22 18:38:00,
2013-09-22 14:43:00,75.4,64.9,29.90,NE,45,0.0,0.0,70,0.00,,,0.00,LWC V2.00 B2112,2013-09-22 18:43:00,
2013-09-22 14:48:00,75.0,64.6,29.90,NNE,22,0.0,0.0,70,0.00,,,0.00,LWC V2.00 B2112,2013-09-22 18:48:00,
2013-09-22 14:53:00,74.5,64.1,29.89,NE,45,0.0,0.0,70,0.00,,,0.00,LWC V2.00 B2112,2013-09-22 18:53:00,
2013-09-22 14:58:00,74.3,63.8,29.89,NNE,22,0.0,0.0,70,0.00,,,0.00,LWC V2.00 B2112,2013-09-22 18:58:00,
2013-09-22 15:03:00,74.1,64.2,29.89,NNE,22,0.0,0.0,71,0.00,,,0.00,LWC V2.00 B2112,2013-09-22 19:03:00,
2013-09-22 15:08:00,74.8,64.8,29.89,North,0,0.0,0.0,71,0.00,,,0.00,LWC V2.00 B2112,2013-09-22 19:08:00,
2013-09-22 15:13:00,74.8,64.6,29.89,NNE,22,0.0,0.0,69,0.00,,,0.00,LWC V2.00 B2112,2013-09-22 19:13:00,
2013-09-22 15:18:00,74.5,63.7,29.89,NNE,22,0.0,0.0,69,0.00,,,0.00,LWC V2.00 B2112,2013-09-22 19:18:00,
2013-09-22 15:23:00,73.8,63.5,29.89,NNE,22,0.0,0.0,70,0.00,,,0.00,LWC V2.00 B2112,2013-09-22 19:23:00,
2013-09-22 15:28:00,73.9,64.2,29.89,North,0,0.0,0.0,71,0.00,,,0.00,LWC V2.00 B2112,2013-09-22 19:28:00,
2013-09-22 15:33:00,74.8,64.8,29.89,North,0,0.0,0.0,71,0.00,,,0.00,LWC V2.00 B2112,2013-09-22 19:33:00,
2013-09-22 15:38:00,75.4,64.5,29.89,NNE,22,0.0,0.0,69,0.00,,,0.00,LWC V2.00 B2112,2013-09-22 19:38:00,
2013-09-22 15:43:00,75.4,64.1,29.89,North,0,0.0,0.0,68,0.00,,,0.00,LWC V2.00 B2112,2013-09-22 19:43:00,
2013-09-22 15:48:00,75.0,64.1,29.89,NNE,22,0.0,0.0,69,0.00,,,0.00,LWC V2.00 B2112,2013-09-22 19:48:00,
2013-09-22 15:53:00,74.8,63.6,29.89,NNE,22,0.0,0.0,68,0.00,,,0.00,LWC V2.00 B2112,2013-09-22 19:53:00,
2013-09-22 15:58:00,75.0,64.1,29.89,NNE,22,0.0,0.0,69,0.00,,,0.00,LWC V2.00 B2112,2013-09-22 19:58:00,
2013-09-22 16:03:00,75.0,64.1,29.89,NNE,22,0.0,0.0,69,0.00,,,0.00,LWC V2.00 B2112,2013-09-22 20:03:00,
2013-09-22 16:08:00,74.8,64.0,29.90,NNE,22,0.0,0.0,69,0.00,,,0.00,LWC V2.00 B2112,2013-09-22 20:08:00,
2013-09-22 16:13:00,74.5,64.0,29.90,North,0,0.0,0.0,69,0.00,,,0.00,LWC V2.00 B2112,2013-09-22 20:13:00,
2013-09-22 16:18:00,74.8,64.0,29.90,NNE,22,0.0,0.0,69,0.00,,,0.00,LWC V2.00 B2112,2013-09-22 20:18:00,
2013-09-22 16:23:00,74.8,63.6,29.90,NNE,22,0.0,0.0,68,0.00,,,0.00,LWC V2.00 B2112,2013-09-22 20:23:00,
2013-09-22 16:28:00,75.0,63.7,29.90,NNE,22,0.0,0.0,68,0.00,,,0.00,LWC V2.00 B2112,2013-09-22 20:28:00,
2013-09-22 16:33:00,74.8,63.6,29.89,NE,45,0.0,0.0,68,0.00,,,0.00,LWC V2.00 B2112,2013-09-22 20:33:00,
2013-09-22 16:38:00,74.8,64.0,29.90,NNE,22,0.0,0.0,69,0.00,,,0.00,LWC V2.00 B2112,2013-09-22 20:38:00,
2013-09-22 16:43:00,74.5,63.7,29.89,NNE,22,0.0,0.0,69,0.00,,,0.00,LWC V2.00 B2112,2013-09-22 20:43:00,
2013-09-22 16:48:00,74.1,63.8,29.90,NNE,22,0.0,0.0,70,0.00,,,0.00,LWC V2.00 B2112,2013-09-22 20:48:00,
2013-09-22 16:53:00,73.9,63.6,29.90,NNE,22,0.0,0.0,70,0.00,,,0.00,LWC V2.00 B2112,2013-09-22 20:53:00,
2013-09-22 16:58:00,73.8,63.8,29.90,NNE,22,0.0,0.0,71,0.00,,,0.00,LWC V2.00 B2112,2013-09-22 20:58:00,
2013-09-22 17:03:00,73.6,63.7,29.90,NNE,22,0.0,0.0,71,0.00,,,0.00,LWC V2.00 B2112,2013-09-22 21:03:00,
2013-09-22 17:08:00,73.8,63.8,29.90,WSW,247,0.0,0.0,71,0.00,,,0.00,LWC V2.00 B2112,2013-09-22 21:08:00,
2013-09-22 17:13:00,73.8,63.7,29.90,NNE,22,0.0,0.0,71,0.00,,,0.00,LWC V2.00 B2112,2013-09-22 21:13:00,
2013-09-22 17:18:00,73.8,63.8,29.91,NNE,22,0.0,0.0,71,0.00,,,0.00,LWC V2.00 B2112,2013-09-22 21:18:00,
2013-09-22 17:23:00,73.6,63.7,29.91,NNE,22,0.0,0.0,71,0.00,,,0.00,LWC V2.00 B2112,2013-09-22 21:23:00,
2013-09-22 17:28:00,73.6,63.7,29.91,NE,45,0.0,0.0,71,0.00,,,0.00,LWC V2.00 B2112,2013-09-22 21:28:00,
2013-09-22 17:33:00,73.4,63.1,29.91,NNE,22,0.0,0.0,70,0.00,,,0.00,LWC V2.00 B2112,2013-09-22 21:33:00,
2013-09-22 17:38:00,73.2,63.0,29.91,NNE,22,0.0,0.0,70,0.00,,,0.00,LWC V2.00 B2112,2013-09-22 21:38:00,
2013-09-22 17:43:00,73.0,62.8,29.90,NNE,22,0.0,0.0,70,0.00,,,0.00,LWC V2.00 B2112,2013-09-22 21:43:00,
2013-09-22 17:48:00,72.7,62.8,29.91,NNE,22,0.0,0.0,71,0.00,,,0.00,LWC V2.00 B2112,2013-09-22 21:48:00,
2013-09-22 17:53:00,72.5,63.4,29.92,NNE,22,0.0,0.0,73,0.00,,,0.00,LWC V2.00 B2112,2013-09-22 21:53:00,
2013-09-22 17:58:00,72.1,63.4,29.91,NNE,22,0.0,0.0,73,0.00,,,0.00,LWC V2.00 B2112,2013-09-22 21:58:00,
2013-09-22 18:03:00,72.0,63.6,29.92,NNE,22,0.0,0.0,75,0.00,,,0.00,LWC V2.00 B2112,2013-09-22 22:03:00,
2013-09-22 18:08:00,71.8,63.8,29.92,NNE,22,0.0,0.0,76,0.00,,,0.00,LWC V2.00 B2112,2013-09-22 22:08:00,
2013-09-22 18:13:00,71.4,63.8,29.92,NNE,22,0.0,0.0,77,0.00,,,0.00,LWC V2.00 B2112,2013-09-22 22:13:00,
2013-09-22 18:18:00,71.4,64.2,29.92,NNE,22,0.0,0.0,78,0.00,,,0.00,LWC V2.00 B2112,2013-09-22 22:18:00,
2013-09-22 18:23:00,71.4,64.2,29.92,NNE,22,0.0,0.0,78,0.00,,,0.00,LWC V2.00 B2112,2013-09-22 22:23:00,
2013-09-22 18:28:00,71.2,64.0,29.92,NNE,22,0.0,0.0,78,0.00,,,0.00,LWC V2.00 B2112,2013-09-22 22:28:00,
2013-09-22 18:33:00,70.9,63.6,29.92,NNE,22,0.0,0.0,78,0.00,,,0.00,LWC V2.00 B2112,2013-09-22 22:33:00,
2013-09-22 18:38:00,70.9,63.3,29.92,NNE,22,0.0,0.0,77,0.00,,,0.00,LWC V2.00 B2112,2013-09-22 22:38:00,
2013-09-22 18:43:00,70.5,63.3,29.92,NNE,22,0.0,0.0,78,0.00,,,0.00,LWC V2.00 B2112,2013-09-22 22:43:00,
2013-09-22 18:48:00,70.3,63.1,29.92,NNE,22,0.0,0.0,78,0.00,,,0.00,LWC V2.00 B2112,2013-09-22 22:48:00,
2013-09-22 18:53:00,70.3,63.1,29.93,NNE,22,0.0,0.0,78,0.00,,,0.00,LWC V2.00 B2112,2013-09-22 22:53:00,
2013-09-22 18:58:00,70.0,62.4,29.92,NNE,22,0.0,0.0,77,0.00,,,0.00,LWC V2.00 B2112,2013-09-22 22:58:00,
2013-09-22 19:03:00,70.0,62.4,29.93,NNE,22,0.0,0.0,77,0.00,,,0.00,LWC V2.00 B2112,2013-09-22 23:03:00,
2013-09-22 19:08:00,69.8,62.2,29.93,NNE,22,0.0,0.0,77,0.00,,,0.00,LWC V2.00 B2112,2013-09-22 23:08:00,
2013-09-22 19:13:00,69.6,62.0,29.93,NNE,22,0.0,0.0,78,0.00,,,0.00,LWC V2.00 B2112,2013-09-22 23:13:00,
2013-09-22 19:18:00,69.3,62.5,29.93,NNE,22,0.0,0.0,79,0.00,,,0.00,LWC V2.00 B2112,2013-09-22 23:18:00,
2013-09-22 19:23:00,69.1,63.0,29.94,NNE,22,0.0,0.0,81,0.00,,,0.00,LWC V2.00 B2112,2013-09-22 23:23:00,
2013-09-22 19:28:00,68.7,63.0,29.94,NNE,22,0.0,0.0,82,0.00,,,0.00,LWC V2.00 B2112,2013-09-22 23:28:00,
2013-09-22 19:33:00,68.5,63.2,29.94,NNE,22,0.0,0.0,83,0.00,,,0.00,LWC V2.00 B2112,2013-09-22 23:33:00,
2013-09-22 19:38:00,68.2,62.8,29.94,NNE,22,0.0,0.0,83,0.00,,,0.00,LWC V2.00 B2112,2013-09-22 23:38:00,
2013-09-22 19:43:00,67.8,62.8,29.94,NNE,22,0.0,0.0,84,0.00,,,0.00,LWC V2.00 B2112,2013-09-22 23:43:00,
2013-09-22 19:48:00,67.6,62.6,29.94,NNE,22,0.0,0.0,84,0.00,,,0.00,LWC V2.00 B2112,2013-09-22 23:48:00,
2013-09-22 19:53:00,67.3,62.3,29.95,NNE,22,0.0,0.0,84,0.00,,,0.00,LWC V2.00 B2112,2013-09-22 23:53:00,
2013-09-22 19:58:00,66.9,61.9,29.95,NNE,22,0.0,0.0,84,0.00,,,0.00,LWC V2.00 B2112,2013-09-22 23:58:00,
2013-09-22 20:03:00,66.7,61.7,29.95,NNE,22,0.0,0.0,84,0.00,,,0.00,LWC V2.00 B2112,2013-09-23 00:03:00,
2013-09-22 20:08:00,66.6,61.6,29.95,NNE,22,0.0,0.0,84,0.00,,,0.00,LWC V2.00 B2112,2013-09-23 00:08:00,
2013-09-22 20:13:00,66.2,61.2,29.95,NNE,22,0.0,0.0,84,0.00,,,0.00,LWC V2.00 B2112,2013-09-23 00:13:00,
2013-09-22 20:18:00,66.0,61.0,29.96,NNE,22,0.0,0.0,84,0.00,,,0.00,LWC V2.00 B2112,2013-09-23 00:18:00,
2013-09-22 20:23:00,66.0,60.7,29.95,NNE,22,0.0,0.0,83,0.00,,,0.00,LWC V2.00 B2112,2013-09-23 00:23:00,
2013-09-22 20:28:00,66.0,60.7,29.96,NNE,22,0.0,0.0,83,0.00,,,0.00,LWC V2.00 B2112,2013-09-23 00:28:00,
2013-09-22 20:33:00,66.0,60.4,29.96,NNE,22,0.0,0.0,82,0.00,,,0.00,LWC V2.00 B2112,2013-09-23 00:33:00,
2013-09-22 20:38:00,65.8,60.2,29.96,NNE,22,0.0,0.0,82,0.00,,,0.00,LWC V2.00 B2112,2013-09-23 00:38:00,
2013-09-22 20:43:00,65.8,60.8,29.97,NNE,22,0.0,0.0,84,0.00,,,0.00,LWC V2.00 B2112,2013-09-23 00:43:00,
2013-09-22 20:48:00,65.7,60.7,29.97,NNE,22,0.0,0.0,84,0.00,,,0.00,LWC V2.00 B2112,2013-09-23 00:48:00,
2013-09-22 20:53:00,65.5,60.8,29.97,NNE,22,0.0,0.0,85,0.00,,,0.00,LWC V2.00 B2112,2013-09-23 00:53:00,
2013-09-22 20:58:00,65.1,60.8,29.97,NNE,22,0.0,0.0,86,0.00,,,0.00,LWC V2.00 B2112,2013-09-23 00:58:00,
2013-09-22 21:03:00,65.1,60.8,29.97,NNE,22,0.0,0.0,86,0.00,,,0.00,LWC V2.00 B2112,2013-09-23 01:03:00,
2013-09-22 21:08:00,64.8,60.5,29.97,NNE,22,0.0,0.0,86,0.00,,,0.00,LWC V2.00 B2112,2013-09-23 01:08:00,
2013-09-22 21:13:00,64.6,60.7,29.97,NNE,22,0.0,0.0,87,0.00,,,0.00,LWC V2.00 B2112,2013-09-23 01:13:00,
2013-09-22 21:18:00,64.2,60.3,29.98,NNE,22,0.0,0.0,87,0.00,,,0.00,LWC V2.00 B2112,2013-09-23 01:18:00,
2013-09-22 21:23:00,64.2,60.3,29.98,NNE,22,0.0,0.0,87,0.00,,,0.00,LWC V2.00 B2112,2013-09-23 01:23:00,
2013-09-22 21:28:00,64.0,60.5,29.98,NNE,22,0.0,0.0,88,0.00,,,0.00,LWC V2.00 B2112,2013-09-23 01:28:00,
2013-09-22 21:33:00,64.0,60.5,29.98,NNE,22,0.0,0.0,88,0.00,,,0.00,LWC V2.00 B2112,2013-09-23 01:33:00,
2013-09-22 21:38:00,63.7,60.1,29.98,NNE,22,0.0,0.0,88,0.00,,,0.00,LWC V2.00 B2112,2013-09-23 01:38:00,
2013-09-22 21:40:00,63.7,60.5,29.98,NNE,23,0.0,0.0,88,0.00,,,0.00,LWC V2.00 B2112,2013-09-23 01:40:00,
2013-09-22 21:43:00,63.3,59.8,29.98,NNE,22,0.0,0.0,88,0.00,,,0.00,LWC V2.00 B2112,2013-09-23 01:43:00,
2013-09-22 21:50:00,63.3,59.8,29.98,NNE,23,0.0,0.0,88,0.00,,,0.00,LWC V2.00 B2112,2013-09-23 01:50:00,
2013-09-22 22:00:00,64.4,60.4,29.98,NNE,22,0.0,0.0,87,0.00,,,0.00,LWC V2.00 B2112,2013-09-23 02:00:00,
2013-09-22 22:10:00,64.4,60.4,29.98,NNE,22,0.0,0.0,87,0.00,,,0.00,LWC V2.00 B2112,2013-09-23 02:10:00,
2013-09-22 22:20:00,64.4,60.4,29.98,NNE,22,0.0,0.0,87,0.00,,,0.00,LWC V2.00 B2112,2013-09-23 02:20:00,
2013-09-22 22:30:00,64.4,60.4,29.98,NNE,22,0.0,0.0,87,0.00,,,0.00,LWC V2.00 B2112,2013-09-23 02:30:00,
2013-09-22 22:49:00,62.6,59.2,30.00,NNE,22,0.0,0.0,89,0.00,,,0.00,LWC V2.00 B2112,2013-09-23 02:49:00,
2013-09-22 22:54:00,62.4,59.2,30.00,NNE,22,0.0,0.0,89,0.00,,,0.00,LWC V2.00 B2112,2013-09-23 02:54:00,
2013-09-22 22:59:00,62.2,59.4,30.00,NNE,22,0.0,0.0,90,0.00,,,0.00,LWC V2.00 B2112,2013-09-23 02:59:00,
2013-09-22 23:04:00,62.2,59.4,30.00,NNE,22,0.0,0.0,90,0.00,,,0.00,LWC V2.00 B2112,2013-09-23 03:04:00,
2013-09-22 23:09:00,62.1,58.8,30.00,NNE,22,0.0,0.0,89,0.00,,,0.00,LWC V2.00 B2112,2013-09-23 03:09:00,
2013-09-22 23:14:00,61.9,59.0,30.00,NNE,22,0.0,0.0,90,0.00,,,0.00,LWC V2.00 B2112,2013-09-23 03:14:00,
2013-09-22 23:19:00,61.9,59.0,30.00,NNE,22,0.0,0.0,90,0.00,,,0.00,LWC V2.00 B2112,2013-09-23 03:19:00,
2013-09-22 23:20:00,61.9,59.0,30.00,NNE,22,0.0,0.0,90,0.00,,,0.00,LWC V2.00 B2112,2013-09-23 03:20:00,
2013-09-22 23:24:00,61.7,58.8,30.00,NNE,22,0.0,0.0,90,0.00,,,0.00,LWC V2.00 B2112,2013-09-23 03:24:00,
2013-09-22 23:30:00,61.7,59.0,30.00,NNE,22,0.0,0.0,90,0.00,,,0.00,LWC V2.00 B2112,2013-09-23 03:30:00,
2013-09-22 23:40:00,61.9,58.9,29.99,NNE,22,0.0,0.0,90,0.00,,,0.00,LWC V2.00 B2112,2013-09-23 03:40:00,
2013-09-22 23:50:00,61.9,58.9,29.99,NNE,22,0.0,0.0,90,0.00,,,0.00,LWC V2.00 B2112,2013-09-23 03:50:00,